Time,TemperatureF,DewpointF,PressureIn,WindDirection,WindDirectionDegrees,WindSpeedMPH,WindSpeedGustMPH,Humidity,HourlyPrecipIn,Conditions,Clouds,dailyrainin,SoftwareType,DateUTC
2013-09-07 00:06:00,48.7,46.0,30.15,East,79,0.0,0.0,91,0.00,,,0.00,weatherlink.com 1.10,2013-09-07 04:06:00,
2013-09-07 00:21:00,48.4,46.0,30.14,East,79,0.0,0.0,91,0.00,,,0.00,weatherlink.com 1.10,2013-09-07 04:21:00,
2013-09-07 00:36:00,48.4,46.0,30.14,East,79,0.0,1.0,91,0.00,,,0.00,weatherlink.com 1.10,2013-09-07 04:36:00,
2013-09-07 00:51:00,48.5,46.0,30.14,NE,37,0.0,1.0,91,0.00,,,0.00,weatherlink.com 1.10,2013-09-07 04:51:00,
2013-09-07 01:06:00,48.5,46.0,30.15,NE,37,0.0,0.0,91,0.00,,,0.00,weatherlink.com 1.10,2013-09-07 05:06:00,
2013-09-07 01:21:00,48.5,46.0,30.14,NE,37,0.0,1.0,92,0.00,,,0.00,weatherlink.com 1.10,2013-09-07 05:21:00,
2013-09-07 01:36:00,48.4,46.0,30.14,NE,37,0.0,0.0,92,0.00,,,0.00,weatherlink.com 1.10,2013-09-07 05:36:00,
2013-09-07 01:51:00,48.2,46.0,30.14,NE,37,0.0,0.0,93,0.00,,,0.00,weatherlink.com 1.10,2013-09-07 05:51:00,
2013-09-07 02:06:00,47.8,46.0,30.14,NE,37,0.0,0.0,93,0.00,,,0.00,weatherlink.com 1.10,2013-09-07 06:06:00,
2013-09-07 02:21:00,47.7,46.0,30.13,NE,37,0.0,0.0,93,0.00,,,0.00,weatherlink.com 1.10,2013-09-07 06:21:00,
2013-09-07 02:36:00,47.5,46.0,30.12,NE,37,0.0,1.0,94,0.00,,,0.00,weatherlink.com 1.10,2013-09-07 06:36:00,
2013-09-07 02:51:00,47.0,45.0,30.12,NE,37,0.0,0.0,94,0.00,,,0.00,weatherlink.com 1.10,2013-09-07 06:51:00,
2013-09-07 03:06:00,46.7,45.0,30.12,NE,37,0.0,0.0,94,0.00,,,0.00,weatherlink.com 1.10,2013-09-07 07:06:00,
2013-09-07 03:21:00,46.4,45.0,30.12,NE,37,0.0,0.0,95,0.00,,,0.00,weatherlink.com 1.10,2013-09-07 07:21:00,
2013-09-07 03:36:00,46.0,45.0,30.12,NE,37,0.0,1.0,95,0.00,,,0.00,weatherlink.com 1.10,2013-09-07 07:36:00,
2013-09-07 03:51:00,46.0,45.0,30.12,NE,37,0.0,0.0,95,0.00,,,0.00,weatherlink.com 1.10,2013-09-07 07:51:00,
2013-09-07 04:06:00,46.1,45.0,30.11,NE,37,0.0,0.0,96,0.00,,,0.00,weatherlink.com 1.10,2013-09-07 08:06:00,
2013-09-07 04:21:00,45.9,45.0,30.11,NE,37,0.0,0.0,96,0.00,,,0.00,weatherlink.com 1.10,2013-09-07 08:21:00,
2013-09-07 04:36:00,45.5,45.0,30.11,NE,37,0.0,0.0,96,0.00,,,0.00,weatherlink.com 1.10,2013-09-07 08:36:00,
2013-09-07 04:51:00,45.8,45.0,30.11,NE,37,0.0,0.0,96,0.00,,,0.00,weatherlink.com 1.10,2013-09-07 08:51:00,
2013-09-07 05:06:00,45.8,45.0,30.11,NE,37,0.0,0.0,96,0.00,,,0.00,weatherlink.com 1.10,2013-09-07 09:06:00,
2013-09-07 05:21:00,45.7,45.0,30.11,NE,37,0.0,0.0,97,0.00,,,0.00,weatherlink.com 1.10,2013-09-07 09:21:00,
2013-09-07 05:36:00,45.8,45.0,30.11,NE,37,0.0,0.0,97,0.00,,,0.00,weatherlink.com 1.10,2013-09-07 09:36:00,
2013-09-07 05:51:00,45.0,44.0,30.12,NE,37,0.0,0.0,96,0.00,,,0.00,weatherlink.com 1.10,2013-09-07 09:51:00,
2013-09-07 06:06:00,44.3,43.0,30.11,NE,37,0.0,0.0,96,0.00,,,0.00,weatherlink.com 1.10,2013-09-07 10:06:00,
2013-09-07 06:21:00,44.9,44.0,30.11,NE,37,0.0,0.0,97,0.00,,,0.00,weatherlink.com 1.10,2013-09-07 10:21:00,
2013-09-07 06:36:00,45.0,44.0,30.11,NE,37,0.0,0.0,97,0.00,,,0.00,weatherlink.com 1.10,2013-09-07 10:36:00,
2013-09-07 06:51:00,44.3,44.0,30.12,NE,37,0.0,0.0,97,0.00,,,0.00,weatherlink.com 1.10,2013-09-07 10:51:00,
2013-09-07 07:06:00,44.0,43.0,30.12,NE,37,0.0,0.0,97,0.00,,,0.00,weatherlink.com 1.10,2013-09-07 11:06:00,
2013-09-07 07:21:00,44.5,44.0,30.12,NE,37,0.0,0.0,97,0.00,,,0.00,weatherlink.com 1.10,2013-09-07 11:21:00,
2013-09-07 07:36:00,46.1,46.0,30.12,NE,37,0.0,0.0,98,0.00,,,0.00,weatherlink.com 1.10,2013-09-07 11:36:00,
2013-09-07 07:51:00,48.5,48.0,30.13,NE,37,0.0,0.0,98,0.00,,,0.00,weatherlink.com 1.10,2013-09-07 11:51:00,
2013-09-07 08:06:00,50.4,50.0,30.12,NE,37,0.0,0.0,98,0.00,,,0.00,weatherlink.com 1.10,2013-09-07 12:06:00,
2013-09-07 08:21:00,51.0,50.0,30.12,NE,37,0.0,0.0,97,0.00,,,0.00,weatherlink.com 1.10,2013-09-07 12:21:00,
2013-09-07 08:37:00,53.3,52.0,30.12,NE,37,0.0,0.0,96,0.00,,,0.00,weatherlink.com 1.10,2013-09-07 12:37:00,
2013-09-07 08:52:00,55.6,55.0,30.11,NE,37,0.0,0.0,96,0.00,,,0.00,weatherlink.com 1.10,2013-09-07 12:52:00,
2013-09-07 09:07:00,59.0,57.0,30.11,NE,37,0.0,0.0,93,0.00,,,0.00,weatherlink.com 1.10,2013-09-07 13:07:00,
2013-09-07 09:22:00,60.3,55.0,30.11,ESE,109,0.0,2.0,82,0.00,,,0.00,weatherlink.com 1.10,2013-09-07 13:22:00,
2013-09-07 09:37:00,61.2,55.0,30.11,SE,131,0.0,3.0,80,0.00,,,0.00,weatherlink.com 1.10,2013-09-07 13:37:00,
2013-09-07 09:52:00,62.4,56.0,30.11,ESE,121,0.0,2.0,79,0.00,,,0.00,weatherlink.com 1.10,2013-09-07 13:52:00,
2013-09-07 10:07:00,65.1,57.0,30.10,ENE,64,1.0,3.0,75,0.00,,,0.00,weatherlink.com 1.10,2013-09-07 14:07:00,
2013-09-07 10:22:00,66.2,55.0,30.11,ENE,57,3.0,6.0,68,0.00,,,0.00,weatherlink.com 1.10,2013-09-07 14:22:00,
2013-09-07 10:37:00,66.6,56.0,30.11,ENE,77,1.0,5.0,69,0.00,,,0.00,weatherlink.com 1.10,2013-09-07 14:37:00,
2013-09-07 10:52:00,67.3,55.0,30.11,NE,56,2.0,4.0,65,0.00,,,0.00,weatherlink.com 1.10,2013-09-07 14:52:00,
2013-09-07 11:07:00,68.8,55.0,30.10,ENE,65,1.0,4.0,62,0.00,,,0.00,weatherlink.com 1.10,2013-09-07 15:07:00,
2013-09-07 11:22:00,69.0,52.0,30.10,SE,135,0.0,4.0,55,0.00,,,0.00,weatherlink.com 1.10,2013-09-07 15:22:00,
2013-09-07 11:37:00,70.1,54.0,30.09,East,91,1.0,3.0,58,0.00,,,0.00,weatherlink.com 1.10,2013-09-07 15:37:00,
2013-09-07 11:52:00,70.8,54.0,30.09,ENE,71,2.0,5.0,55,0.00,,,0.00,weatherlink.com 1.10,2013-09-07 15:52:00,
2013-09-07 12:07:00,71.5,55.0,30.09,NE,49,8.0,8.0,56,0.00,,,0.00,weatherlink.com 1.10,2013-09-07 16:07:00,
2013-09-07 12:22:00,72.5,53.0,30.08,ENE,72,0.0,7.0,51,0.00,,,0.00,weatherlink.com 1.10,2013-09-07 16:22:00,
2013-09-07 12:37:00,72.4,54.0,30.07,WNW,297,1.0,5.0,52,0.00,,,0.00,weatherlink.com 1.10,2013-09-07 16:37:00,
2013-09-07 12:52:00,72.1,56.0,30.06,ENE,63,0.0,6.0,57,0.00,,,0.00,weatherlink.com 1.10,2013-09-07 16:52:00,
2013-09-07 13:07:00,73.5,52.0,30.06,NNE,22,2.0,8.0,48,0.00,,,0.00,weatherlink.com 1.10,2013-09-07 17:07:00,
2013-09-07 13:22:00,73.8,53.0,30.05,ENE,58,8.0,8.0,49,0.00,,,0.00,weatherlink.com 1.10,2013-09-07 17:22:00,
2013-09-07 13:38:00,73.5,54.0,30.05,NE,36,0.0,6.0,50,0.00,,,0.00,weatherlink.com 1.10,2013-09-07 17:38:00,
2013-09-07 13:53:00,74.5,55.0,30.05,ENE,59,2.0,4.0,51,0.00,,,0.00,weatherlink.com 1.10,2013-09-07 17:53:00,
2013-09-07 14:08:00,75.7,55.0,30.04,ESE,115,1.0,5.0,48,0.00,,,0.00,weatherlink.com 1.10,2013-09-07 18:08:00,
2013-09-07 14:23:00,75.7,55.0,30.04,ENE,72,1.0,6.0,49,0.00,,,0.00,weatherlink.com 1.10,2013-09-07 18:23:00,
2013-09-07 14:38:00,75.9,54.0,30.03,NNE,15,6.0,6.0,47,0.00,,,0.00,weatherlink.com 1.10,2013-09-07 18:38:00,
2013-09-07 14:53:00,76.4,53.0,30.02,ESE,102,2.0,7.0,45,0.00,,,0.00,weatherlink.com 1.10,2013-09-07 18:53:00,
2013-09-07 15:08:00,76.3,54.0,30.02,SSW,207,1.0,7.0,46,0.00,,,0.00,weatherlink.com 1.10,2013-09-07 19:08:00,
2013-09-07 15:23:00,76.4,53.0,30.02,ENE,67,2.0,9.0,44,0.00,,,0.00,weatherlink.com 1.10,2013-09-07 19:23:00,
2013-09-07 15:38:00,76.4,52.0,30.01,SE,131,2.0,8.0,43,0.00,,,0.00,weatherlink.com 1.10,2013-09-07 19:38:00,
2013-09-07 15:53:00,76.9,52.0,30.01,ENE,57,1.0,8.0,42,0.00,,,0.00,weatherlink.com 1.10,2013-09-07 19:53:00,
2013-09-07 16:08:00,77.2,52.0,30.00,ENE,65,3.0,7.0,41,0.00,,,0.00,weatherlink.com 1.10,2013-09-07 20:08:00,
2013-09-07 16:23:00,77.6,53.0,30.00,ENE,58,3.0,8.0,42,0.00,,,0.00,weatherlink.com 1.10,2013-09-07 20:23:00,
2013-09-07 16:38:00,76.6,53.0,30.00,ENE,75,2.0,8.0,44,0.00,,,0.00,weatherlink.com 1.10,2013-09-07 20:38:00,
2013-09-07 16:53:00,76.7,54.0,30.00,East,99,1.0,6.0,45,0.00,,,0.00,weatherlink.com 1.10,2013-09-07 20:53:00,
2013-09-07 17:08:00,76.3,55.0,29.99,NE,56,5.0,6.0,47,0.00,,,0.00,weatherlink.com 1.10,2013-09-07 21:08:00,
2013-09-07 17:23:00,75.3,55.0,29.99,East,88,4.0,6.0,49,0.00,,,0.00,weatherlink.com 1.10,2013-09-07 21:23:00,
2013-09-07 17:38:00,74.3,56.0,29.98,East,93,5.0,5.0,54,0.00,,,0.00,weatherlink.com 1.10,2013-09-07 21:38:00,
2013-09-07 17:53:00,73.7,57.0,29.98,ENE,72,2.0,3.0,56,0.00,,,0.00,weatherlink.com 1.10,2013-09-07 21:53:00,
2013-09-07 18:08:00,74.0,58.0,29.97,East,79,2.0,5.0,57,0.00,,,0.00,weatherlink.com 1.10,2013-09-07 22:08:00,
2013-09-07 18:23:00,75.3,58.0,29.97,NE,56,2.0,4.0,55,0.00,,,0.00,weatherlink.com 1.10,2013-09-07 22:23:00,
2013-09-07 18:38:00,74.5,57.0,29.97,NE,45,2.0,4.0,55,0.00,,,0.00,weatherlink.com 1.10,2013-09-07 22:38:00,
2013-09-07 18:53:00,72.7,58.0,29.97,NE,37,4.0,4.0,60,0.00,,,0.00,weatherlink.com 1.10,2013-09-07 22:53:00,
2013-09-07 19:08:00,71.1,58.0,29.96,NE,50,0.0,2.0,64,0.00,,,0.00,weatherlink.com 1.10,2013-09-07 23:08:00,
2013-09-07 19:23:00,69.3,58.0,29.97,NE,49,0.0,0.0,67,0.00,,,0.00,weatherlink.com 1.10,2013-09-07 23:23:00,
2013-09-07 19:38:00,67.6,58.0,29.96,NE,49,0.0,0.0,71,0.00,,,0.00,weatherlink.com 1.10,2013-09-07 23:38:00,
2013-09-07 19:53:00,66.2,57.0,29.97,NE,49,0.0,0.0,73,0.00,,,0.00,weatherlink.com 1.10,2013-09-07 23:53:00,
2013-09-07 20:08:00,65.4,57.0,29.97,NE,50,0.0,0.0,75,0.00,,,0.00,weatherlink.com 1.10,2013-09-08 00:08:00,
2013-09-07 20:23:00,65.5,57.0,29.97,NE,50,0.0,0.0,75,0.00,,,0.00,weatherlink.com 1.10,2013-09-08 00:23:00,
2013-09-07 20:38:00,65.6,57.0,29.98,NE,50,0.0,0.0,74,0.00,,,0.00,weatherlink.com 1.10,2013-09-08 00:38:00,
2013-09-07 20:53:00,65.6,57.0,29.98,NE,50,0.0,0.0,73,0.00,,,0.00,weatherlink.com 1.10,2013-09-08 00:53:00,
2013-09-07 21:08:00,65.8,57.0,29.98,ENE,74,0.0,0.0,74,0.00,,,0.00,weatherlink.com 1.10,2013-09-08 01:08:00,
2013-09-07 21:23:00,65.9,57.0,29.98,ENE,65,0.0,1.0,74,0.00,,,0.00,weatherlink.com 1.10,2013-09-08 01:23:00,
2013-09-07 21:38:00,66.4,57.0,29.98,NE,51,0.0,2.0,72,0.00,,,0.00,weatherlink.com 1.10,2013-09-08 01:38:00,
2013-09-07 21:53:00,67.1,57.0,29.98,NE,51,0.0,2.0,70,0.00,,,0.00,weatherlink.com 1.10,2013-09-08 01:53:00,
2013-09-07 22:08:00,67.0,57.0,29.98,ENE,67,1.0,1.0,70,0.00,,,0.00,weatherlink.com 1.10,2013-09-08 02:08:00,
2013-09-07 22:23:00,67.0,57.0,29.98,NE,54,0.0,2.0,71,0.00,,,0.00,weatherlink.com 1.10,2013-09-08 02:23:00,
2013-09-07 22:38:00,66.9,57.0,29.97,NE,47,0.0,1.0,71,0.00,,,0.00,weatherlink.com 1.10,2013-09-08 02:38:00,
2013-09-07 22:53:00,66.7,57.0,29.97,NE,53,0.0,1.0,72,0.00,,,0.00,weatherlink.com 1.10,2013-09-08 02:53:00,
2013-09-07 23:08:00,66.9,57.0,29.97,NE,51,0.0,3.0,71,0.00,,,0.00,weatherlink.com 1.10,2013-09-08 03:08:00,
2013-09-07 23:23:00,66.7,57.0,29.96,ENE,58,0.0,1.0,71,0.00,,,0.00,weatherlink.com 1.10,2013-09-08 03:23:00,
2013-09-07 23:38:00,66.5,57.0,29.96,ENE,60,0.0,0.0,72,0.00,,,0.00,weatherlink.com 1.10,2013-09-08 03:38:00,
2013-09-07 23:53:00,66.4,58.0,29.95,ENE,60,0.0,1.0,73,0.00,,,0.00,weatherlink.com 1.10,2013-09-08 03:53:00,